createdAt,value
2023-02-04T00:01:24.527Z,3.43
2023-02-04T00:03:52.360Z,3.47
2023-02-04T00:06:19.289Z,3.63
2023-02-04T00:08:46.141Z,4.30
2023-02-04T00:11:13.012Z,3.73
2023-02-04T00:13:39.778Z,4.67
2023-02-04T00:16:07.055Z,3.43
2023-02-04T00:18:33.799Z,3.50
2023-02-04T00:21:00.630Z,2.77
2023-02-04T00:23:27.398Z,3.80
2023-02-04T00:25:54.266Z,3.40
2023-02-04T00:28:21.000Z,3.40
2023-02-04T00:30:47.772Z,3.67
2023-02-04T00:33:14.493Z,3.37
2023-02-04T00:35:41.185Z,4.00
2023-02-04T00:38:07.930Z,3.20
2023-02-04T00:40:34.926Z,3.07
2023-02-04T00:43:01.663Z,3.50
2023-02-04T00:45:28.546Z,3.70
2023-02-04T00:47:55.335Z,3.87
2023-02-04T00:50:22.054Z,3.73
2023-02-04T00:52:48.773Z,3.63
2023-02-04T00:55:17.054Z,3.03
2023-02-04T00:57:47.490Z,4.40
2023-02-04T01:00:16.068Z,3.67
2023-02-04T01:02:42.917Z,3.57
2023-02-04T01:05:10.326Z,3.60
2023-02-04T01:07:37.350Z,3.50
2023-02-04T01:10:04.844Z,3.40
2023-02-04T01:12:31.637Z,3.27
2023-02-04T01:14:58.632Z,2.87
2023-02-04T01:17:25.843Z,3.50
2023-02-04T01:19:52.558Z,3.57
2023-02-04T01:22:19.298Z,3.47
2023-02-04T01:24:45.997Z,3.80
2023-02-04T01:27:12.856Z,3.63
2023-02-04T01:29:39.598Z,3.83
2023-02-04T01:32:06.398Z,3.57
2023-02-04T01:34:33.200Z,3.37
2023-02-04T01:36:59.914Z,3.70
2023-02-04T01:39:26.672Z,3.50
2023-02-04T01:41:53.591Z,3.50
2023-02-04T01:44:20.633Z,3.80
2023-02-04T01:46:47.548Z,3.30
2023-02-04T01:49:14.524Z,4.40
2023-02-04T01:51:41.918Z,3.07
2023-02-04T01:54:13.158Z,3.23
2023-02-04T01:56:45.229Z,3.37
2023-02-04T01:59:15.872Z,3.63
2023-02-04T02:01:47.965Z,3.20
2023-02-04T02:04:20.225Z,3.80
2023-02-04T02:06:59.637Z,3.20
2023-02-04T02:09:27.775Z,4.10
2023-02-04T02:11:54.989Z,3.53
2023-02-04T02:14:22.448Z,2.90
2023-02-04T02:16:49.433Z,3.67
2023-02-04T02:19:27.348Z,3.37
2023-02-04T02:22:05.344Z,2.73
2023-02-04T02:24:34.917Z,3.23
2023-02-04T02:27:08.404Z,3.07
2023-02-04T02:29:37.551Z,3.47
2023-02-04T02:32:05.487Z,3.00
2023-02-04T02:34:33.597Z,3.30
2023-02-04T02:37:02.168Z,3.60
2023-02-04T02:39:29.376Z,3.60
2023-02-04T02:41:57.494Z,3.80
2023-02-04T02:44:26.181Z,3.10
2023-02-04T02:46:54.574Z,3.50
2023-02-04T02:49:22.481Z,3.17
2023-02-04T02:51:49.582Z,3.70
2023-02-04T02:54:26.500Z,3.30
2023-02-04T02:56:54.249Z,3.50
2023-02-04T02:59:21.200Z,3.90
2023-02-04T03:02:01.284Z,3.60
2023-02-04T03:04:31.614Z,3.43
2023-02-04T03:06:58.788Z,3.70
2023-02-04T03:09:27.381Z,3.77
2023-02-04T03:11:54.468Z,3.60
2023-02-04T03:14:25.194Z,4.30
2023-02-04T03:16:55.502Z,3.63
2023-02-04T03:19:25.658Z,3.63
2023-02-04T03:21:53.465Z,4.20
2023-02-04T03:24:20.249Z,4.37
2023-02-04T03:26:47.048Z,4.03
2023-02-04T03:29:14.385Z,4.63
2023-02-04T03:31:41.264Z,4.20
2023-02-04T03:34:08.055Z,3.80
2023-02-04T03:36:34.866Z,3.87
2023-02-04T03:39:01.945Z,4.20
2023-02-04T03:41:30.061Z,4.20
2023-02-04T03:43:56.804Z,4.17
2023-02-04T03:46:24.427Z,3.33
2023-02-04T03:48:51.461Z,4.03
2023-02-04T03:51:18.191Z,4.20
2023-02-04T03:53:44.934Z,3.27
2023-02-04T03:56:11.670Z,3.80
2023-02-04T03:58:38.475Z,4.00
2023-02-04T04:01:05.414Z,4.97
2023-02-04T04:03:32.159Z,4.47
2023-02-04T04:05:58.893Z,3.83
2023-02-04T04:08:25.689Z,5.40
2023-02-04T04:10:52.453Z,4.13
2023-02-04T04:13:19.223Z,3.80
2023-02-04T04:15:46.228Z,4.00
2023-02-04T04:18:13.002Z,4.87
2023-02-04T04:20:39.732Z,3.53
2023-02-04T04:23:06.459Z,5.00
2023-02-04T04:25:33.192Z,4.27
2023-02-04T04:27:59.928Z,3.80
2023-02-04T04:30:26.738Z,4.80
2023-02-04T04:32:53.463Z,4.53
2023-02-04T04:35:20.211Z,4.33
2023-02-04T04:37:47.032Z,4.20
2023-02-04T04:40:14.224Z,4.73
2023-02-04T04:42:40.946Z,4.20
2023-02-04T04:45:10.576Z,4.13
2023-02-04T04:47:37.401Z,4.23
2023-02-04T04:50:04.586Z,4.30
2023-02-04T04:52:31.291Z,4.40
2023-02-04T04:54:58.002Z,4.50
2023-02-04T04:57:24.767Z,4.87
2023-02-04T04:59:51.608Z,4.17
2023-02-04T05:02:18.389Z,4.23
2023-02-04T05:04:45.186Z,4.10
2023-02-04T05:07:12.014Z,4.00
2023-02-04T05:09:38.755Z,3.60
2023-02-04T05:12:05.851Z,4.10
2023-02-04T05:14:32.935Z,4.40
2023-02-04T05:16:59.663Z,4.23
2023-02-04T05:19:26.456Z,3.23
2023-02-04T05:21:53.289Z,4.40
2023-02-04T05:24:20.126Z,3.80
2023-02-04T05:26:46.839Z,4.57
2023-02-04T05:29:13.679Z,4.47
2023-02-04T05:31:40.464Z,4.20
2023-02-04T05:34:07.255Z,4.40
2023-02-04T05:36:34.019Z,4.80
2023-02-04T05:39:00.878Z,4.00
2023-02-04T05:41:27.972Z,4.53
2023-02-04T05:43:54.785Z,3.73
2023-02-04T05:46:21.800Z,4.07
2023-02-04T05:48:48.681Z,3.87
2023-02-04T05:51:15.463Z,3.77
2023-02-04T05:53:42.209Z,3.90
2023-02-04T05:56:09.004Z,3.97
2023-02-04T05:58:35.753Z,4.17
2023-02-04T06:01:03.841Z,4.33
2023-02-04T06:03:31.552Z,3.97
2023-02-04T06:05:58.420Z,3.60
2023-02-04T06:08:25.184Z,3.60
2023-02-04T06:10:51.968Z,3.93
2023-02-04T06:13:18.841Z,3.57
2023-02-04T06:15:45.603Z,4.80
2023-02-04T06:18:12.409Z,3.57
2023-02-04T06:20:39.313Z,4.00
2023-02-04T06:23:06.060Z,4.23
2023-02-04T06:25:32.854Z,4.30
2023-02-04T06:27:59.602Z,5.67
2023-02-04T06:30:26.348Z,5.53
2023-02-04T06:32:53.053Z,4.87
2023-02-04T06:35:20.020Z,5.23
2023-02-04T06:37:47.562Z,4.70
2023-02-04T06:40:14.571Z,4.63
2023-02-04T06:42:41.341Z,4.50
2023-02-04T06:45:08.510Z,4.80
2023-02-04T06:47:35.267Z,5.17
2023-02-04T06:50:02.042Z,5.10
2023-02-04T06:52:28.810Z,4.47
2023-02-04T06:54:55.603Z,4.07
2023-02-04T06:57:22.374Z,4.27
2023-02-04T06:59:49.088Z,5.00
2023-02-04T07:02:15.894Z,4.63
2023-02-04T07:04:43.838Z,4.50
2023-02-04T07:07:11.921Z,4.07
2023-02-04T07:09:40.521Z,5.27
2023-02-04T07:12:07.644Z,4.77
2023-02-04T07:14:34.574Z,5.67
2023-02-04T07:17:01.434Z,5.20
2023-02-04T07:19:28.328Z,4.53
2023-02-04T07:21:56.822Z,4.23
2023-02-04T07:24:24.200Z,4.37
2023-02-04T07:26:51.485Z,5.37
2023-02-04T07:29:25.571Z,4.80
2023-02-04T07:31:53.537Z,5.47
2023-02-04T07:34:21.279Z,4.90
2023-02-04T07:36:48.296Z,4.47
2023-02-04T07:39:15.297Z,4.10
2023-02-04T07:41:42.470Z,4.03
2023-02-04T07:44:09.206Z,5.30
2023-02-04T07:49:15.496Z,4.83
2023-02-04T07:51:42.415Z,4.57
2023-02-04T07:54:09.386Z,5.00
2023-02-04T07:56:36.235Z,5.07
2023-02-04T07:59:03.018Z,4.33
2023-02-04T08:01:29.867Z,4.87
2023-02-04T08:03:56.684Z,4.40
2023-02-04T08:06:23.440Z,5.03
2023-02-04T08:08:50.242Z,4.77
2023-02-04T08:11:17.003Z,6.13
2023-02-04T08:13:43.815Z,7.00
2023-02-04T08:16:11.928Z,7.20
2023-02-04T08:18:38.943Z,7.07
2023-02-04T08:21:06.350Z,7.47
2023-02-04T08:23:33.411Z,7.57
2023-02-04T08:26:00.223Z,5.40
2023-02-04T08:28:26.988Z,7.07
2023-02-04T08:30:53.919Z,8.27
2023-02-04T08:33:22.186Z,6.00
2023-02-04T08:35:48.985Z,6.30
2023-02-04T08:38:15.850Z,5.97
2023-02-04T08:40:42.843Z,6.70
2023-02-04T08:43:10.342Z,5.43
2023-02-04T08:45:37.124Z,6.07
2023-02-04T08:48:04.242Z,5.40
2023-02-04T08:50:31.395Z,7.20
2023-02-04T08:52:58.343Z,7.90
2023-02-04T08:55:25.197Z,5.03
2023-02-04T08:57:52.011Z,4.80
2023-02-04T09:00:19.211Z,5.50
2023-02-04T09:02:46.032Z,6.17
2023-02-04T09:05:12.805Z,5.27
2023-02-04T09:07:39.588Z,5.03
2023-02-04T09:10:06.836Z,5.27
2023-02-04T09:12:34.126Z,4.97
2023-02-04T09:15:00.990Z,5.00
2023-02-04T09:17:27.765Z,5.77
2023-02-04T09:19:54.530Z,5.33
2023-02-04T09:22:21.285Z,4.40
2023-02-04T09:24:48.055Z,5.23
2023-02-04T09:27:14.784Z,5.00
2023-02-04T09:29:41.511Z,4.53
2023-02-04T09:32:08.345Z,5.50
2023-02-04T09:34:35.177Z,5.10
2023-02-04T09:37:02.027Z,5.27
2023-02-04T09:39:29.164Z,5.10
2023-02-04T09:41:56.552Z,5.23
2023-02-04T09:44:27.755Z,4.57
2023-02-04T09:47:00.437Z,5.23
2023-02-04T09:49:28.019Z,4.60
2023-02-04T09:51:55.930Z,4.80
2023-02-04T09:54:24.933Z,5.50
2023-02-04T09:56:52.880Z,4.50
2023-02-04T09:59:23.633Z,4.90
2023-02-04T10:02:00.111Z,4.50
2023-02-04T10:04:27.891Z,4.67
2023-02-04T10:06:58.886Z,4.73
2023-02-04T10:09:26.156Z,4.03
2023-02-04T10:11:53.234Z,4.50
2023-02-04T10:14:23.422Z,5.57
2023-02-04T10:17:01.116Z,4.83
2023-02-04T10:19:30.914Z,5.13
2023-02-04T10:21:58.298Z,4.60
2023-02-04T10:24:28.163Z,4.37
2023-02-04T10:27:05.942Z,4.10
2023-02-04T10:29:32.746Z,4.33
2023-02-04T10:31:59.572Z,3.93
2023-02-04T10:34:40.098Z,4.07
2023-02-04T10:37:21.675Z,3.77
2023-02-04T10:39:49.727Z,4.03
2023-02-04T10:42:32.484Z,4.00
2023-02-04T10:44:59.344Z,3.80
2023-02-04T10:47:30.934Z,3.90
2023-02-04T10:50:07.495Z,4.22
2023-02-04T10:52:39.763Z,3.47
2023-02-04T10:55:15.029Z,3.57
2023-02-04T10:57:44.822Z,3.00
2023-02-04T11:00:15.822Z,2.90
2023-02-04T11:02:48.136Z,3.67
2023-02-04T11:05:22.676Z,3.80
2023-02-04T11:07:50.884Z,4.50
2023-02-04T11:10:24.877Z,4.07
2023-02-04T11:12:54.347Z,3.73
2023-02-04T11:15:50.779Z,3.40
2023-02-04T11:18:20.931Z,3.77
2023-02-04T11:20:55.425Z,3.97
2023-02-04T11:23:30.781Z,3.43
2023-02-04T11:26:13.951Z,4.07
2023-02-04T11:28:50.904Z,3.80
2023-02-04T11:31:20.443Z,3.20
2023-02-04T11:33:50.322Z,3.50
2023-02-04T11:36:17.971Z,3.30
2023-02-04T11:38:48.889Z,3.60
2023-02-04T11:41:29.914Z,3.23
2023-02-04T11:43:58.107Z,3.57
2023-02-04T11:46:28.586Z,4.10
2023-02-04T11:48:57.982Z,3.47
2023-02-04T11:51:34.377Z,3.87
2023-02-04T11:54:01.338Z,3.80
2023-02-04T11:56:30.009Z,4.67
2023-02-04T11:58:58.489Z,5.00
2023-02-04T12:01:32.467Z,4.87
2023-02-04T12:04:02.868Z,5.57
2023-02-04T12:06:37.272Z,4.30
2023-02-04T12:09:15.951Z,3.73
2023-02-04T12:11:54.211Z,4.22
2023-02-04T12:14:21.583Z,4.60
2023-02-04T12:16:51.652Z,3.43
2023-02-04T12:19:18.552Z,3.57
2023-02-04T12:21:45.496Z,3.70
2023-02-04T12:24:12.332Z,3.97
2023-02-04T12:26:39.139Z,3.50
2023-02-04T12:29:05.990Z,3.73
2023-02-04T12:31:33.958Z,3.20
2023-02-04T12:34:01.420Z,3.33
2023-02-04T12:36:29.688Z,3.05
2023-02-04T12:39:00.488Z,3.10
2023-02-04T12:41:28.381Z,3.15
2023-02-04T12:43:55.668Z,3.37
2023-02-04T12:46:22.575Z,3.88
2023-02-04T12:48:49.602Z,3.83
2023-02-04T12:51:16.562Z,3.42
2023-02-04T12:53:47.464Z,3.80
2023-02-04T12:56:15.360Z,3.78
2023-02-04T12:58:42.289Z,4.28
2023-02-04T13:01:09.202Z,3.58
2023-02-04T13:03:36.186Z,4.07
2023-02-04T13:06:03.104Z,3.95
2023-02-04T13:08:29.896Z,4.07
2023-02-04T13:10:56.781Z,4.00
2023-02-04T13:13:23.592Z,4.17
2023-02-04T13:15:50.574Z,3.45
2023-02-04T13:18:18.461Z,3.50
2023-02-04T13:20:46.146Z,3.63
2023-02-04T13:23:14.060Z,3.92
2023-02-04T13:25:40.949Z,3.58
2023-02-04T13:28:07.808Z,3.95
2023-02-04T13:30:34.743Z,3.67
2023-02-04T13:33:01.606Z,4.70
2023-02-04T13:35:28.400Z,4.10
2023-02-04T13:37:56.493Z,3.38
2023-02-04T13:40:23.408Z,4.40
2023-02-04T13:42:50.317Z,3.72
2023-02-04T13:45:18.849Z,3.70
2023-02-04T13:47:47.841Z,4.25
2023-02-04T13:50:16.637Z,3.90
2023-02-04T13:52:43.500Z,3.58
2023-02-04T13:55:10.629Z,4.18
2023-02-04T13:57:40.084Z,3.72
2023-02-04T14:00:08.365Z,6.63
2023-02-04T14:02:35.170Z,4.33
2023-02-04T14:05:02.029Z,4.82
2023-02-04T14:07:30.469Z,4.63
2023-02-04T14:09:57.238Z,4.20
2023-02-04T14:12:24.383Z,4.37
2023-02-04T14:14:51.608Z,4.60
2023-02-04T14:17:18.348Z,3.70
2023-02-04T14:19:45.257Z,4.20
2023-02-04T14:22:13.142Z,7.13
2023-02-04T14:24:42.546Z,5.28
2023-02-04T14:27:10.803Z,5.13
2023-02-04T14:29:37.616Z,4.43
2023-02-04T14:32:04.991Z,4.87
2023-02-04T14:34:31.909Z,3.65
2023-02-04T14:36:58.699Z,4.43
2023-02-04T14:39:25.638Z,4.90
2023-02-04T14:41:52.687Z,4.47
2023-02-04T14:44:20.898Z,4.18
2023-02-04T14:46:49.305Z,3.63
2023-02-04T14:49:17.049Z,4.32
2023-02-04T14:51:44.479Z,4.80
2023-02-04T14:54:11.485Z,5.38
2023-02-04T14:56:38.526Z,5.18
2023-02-04T14:59:05.356Z,4.10
2023-02-04T15:01:32.203Z,5.60
2023-02-04T15:03:59.098Z,5.25
2023-02-04T15:06:26.100Z,4.47
2023-02-04T15:08:53.057Z,10.93
2023-02-04T15:11:19.993Z,5.32
2023-02-04T15:13:47.255Z,4.00
2023-02-04T15:16:14.876Z,5.18
2023-02-04T15:18:42.342Z,4.53
2023-02-04T15:21:09.509Z,5.07
2023-02-04T15:23:36.349Z,4.77
2023-02-04T15:26:03.977Z,3.15
2023-02-04T15:28:31.372Z,3.40
2023-02-04T15:30:58.698Z,3.42
2023-02-04T15:33:25.643Z,3.85
2023-02-04T15:35:52.499Z,4.53
2023-02-04T15:38:19.266Z,3.55
2023-02-04T15:40:46.023Z,4.33
2023-02-04T15:43:12.873Z,3.67
2023-02-04T15:45:41.473Z,3.53
2023-02-04T15:48:08.658Z,3.90
2023-02-04T15:50:36.712Z,4.68
2023-02-04T15:53:04.809Z,3.92
2023-02-04T15:55:31.581Z,4.43
2023-02-04T15:57:58.727Z,4.17
2023-02-04T16:00:25.562Z,3.27
2023-02-04T16:02:52.401Z,3.33
2023-02-04T16:05:19.414Z,4.00
2023-02-04T16:07:46.195Z,3.63
2023-02-04T16:10:13.221Z,4.47
2023-02-04T16:12:39.986Z,3.37
2023-02-04T16:15:07.320Z,2.78
2023-02-04T16:17:34.119Z,3.90
2023-02-04T16:20:03.058Z,4.60
2023-02-04T16:22:30.628Z,6.30
2023-02-04T16:24:57.426Z,6.73
2023-02-04T16:27:25.496Z,7.30
2023-02-04T16:29:53.825Z,4.67
2023-02-04T16:32:21.647Z,3.50
2023-02-04T16:34:48.471Z,4.30
2023-02-04T16:37:15.312Z,3.50
2023-02-04T16:39:44.665Z,3.20
2023-02-04T16:42:12.588Z,3.23
2023-02-04T16:44:39.360Z,4.20
2023-02-04T16:47:08.057Z,4.10
2023-02-04T16:49:35.922Z,4.03
2023-02-04T16:52:05.073Z,4.50
2023-02-04T16:54:33.157Z,4.40
2023-02-04T16:57:00.721Z,5.30
2023-02-04T16:59:28.633Z,5.13
2023-02-04T17:02:00.463Z,8.23
2023-02-04T17:04:28.658Z,8.77
2023-02-04T17:06:55.447Z,4.30
2023-02-04T17:09:22.281Z,5.03
2023-02-04T17:11:49.076Z,5.30
2023-02-04T17:14:16.083Z,5.37
2023-02-04T17:16:44.767Z,5.37
2023-02-04T17:19:13.463Z,5.30
2023-02-04T17:21:40.764Z,6.00
2023-02-04T17:24:08.810Z,6.33
2023-02-04T17:26:38.282Z,6.10
2023-02-04T17:29:14.801Z,5.33
2023-02-04T17:31:44.668Z,8.80
2023-02-04T17:34:11.595Z,12.97
2023-02-04T17:36:38.956Z,13.57
2023-02-04T17:39:07.571Z,13.07
2023-02-04T17:41:34.562Z,10.97
2023-02-04T17:44:03.451Z,5.90
2023-02-04T17:46:31.154Z,5.67
2023-02-04T17:48:58.736Z,5.47
2023-02-04T17:51:25.781Z,5.53
2023-02-04T17:53:52.581Z,5.50
2023-02-04T17:56:21.311Z,6.17
2023-02-04T17:58:48.283Z,6.07
2023-02-04T18:01:18.776Z,6.37
2023-02-04T18:03:48.691Z,9.57
2023-02-04T18:06:25.164Z,11.53
2023-02-04T18:08:56.402Z,16.43
2023-02-04T18:11:29.293Z,16.37
2023-02-04T18:14:37.005Z,16.30
2023-02-04T18:17:15.162Z,20.00
2023-02-04T18:19:44.968Z,21.90
2023-02-04T18:22:16.106Z,20.20
2023-02-04T18:24:48.247Z,23.27
2023-02-04T18:27:24.970Z,12.50
2023-02-04T18:29:55.500Z,9.10
2023-02-04T18:32:29.093Z,6.07
2023-02-04T18:34:57.602Z,5.60
2023-02-04T18:37:31.448Z,6.00
2023-02-04T18:40:10.332Z,11.23
2023-02-04T18:42:41.323Z,13.87
2023-02-04T18:45:25.316Z,14.93
2023-02-04T18:47:58.088Z,16.27
2023-02-04T18:50:29.647Z,17.87
2023-02-04T18:53:15.117Z,17.77
2023-02-04T18:55:48.721Z,15.17
2023-02-04T18:58:40.458Z,14.43
2023-02-04T19:01:10.271Z,11.33
2023-02-04T19:03:52.433Z,9.00
2023-02-04T19:06:42.313Z,8.70
2023-02-04T19:09:12.184Z,12.53
2023-02-04T19:11:47.898Z,12.53
2023-02-04T19:14:37.603Z,15.20
2023-02-04T19:17:29.137Z,18.00
2023-02-04T19:20:17.737Z,18.00
2023-02-04T19:22:54.058Z,17.77
2023-02-04T19:25:33.081Z,15.70
2023-02-04T19:28:03.834Z,16.17
2023-02-04T19:30:30.751Z,14.50
2023-02-04T19:33:01.558Z,14.40
2023-02-04T19:35:40.380Z,18.67
2023-02-04T19:38:41.779Z,20.30
2023-02-04T19:41:41.780Z,19.83
2023-02-04T19:44:15.171Z,19.87
2023-02-04T19:46:43.434Z,21.57
2023-02-04T19:49:20.752Z,20.67
2023-02-04T19:51:53.378Z,12.43
2023-02-04T19:54:25.172Z,14.67
2023-02-04T19:56:54.572Z,17.63
2023-02-04T19:59:35.731Z,15.63
2023-02-04T20:02:33.505Z,12.00
2023-02-04T20:05:00.931Z,14.53
2023-02-04T20:07:29.448Z,19.07
2023-02-04T20:10:27.774Z,19.70
2023-02-04T20:13:05.797Z,18.87
2023-02-04T20:15:32.976Z,20.17
2023-02-04T20:18:00.148Z,18.70
2023-02-04T20:20:29.889Z,17.83
2023-02-04T20:23:34.953Z,18.47
2023-02-04T20:26:02.196Z,19.27
2023-02-04T20:28:51.927Z,20.77
2023-02-04T20:31:38.716Z,23.33
2023-02-04T20:34:22.376Z,21.53
2023-02-04T20:36:52.262Z,20.23
2023-02-04T20:39:36.892Z,21.03
2023-02-04T20:42:34.207Z,19.33
2023-02-04T20:45:16.643Z,21.80
2023-02-04T20:47:43.529Z,23.87
2023-02-04T20:50:51.931Z,24.23
2023-02-04T20:53:29.494Z,20.73
2023-02-04T20:56:04.088Z,21.30
2023-02-04T20:58:43.298Z,21.00
2023-02-04T21:01:33.944Z,21.40
2023-02-04T21:04:15.880Z,21.77
2023-02-04T21:06:43.075Z,21.70
2023-02-04T21:09:28.101Z,20.93
2023-02-04T21:11:57.596Z,19.57
2023-02-04T21:14:26.134Z,21.93
2023-02-04T21:16:54.838Z,23.60
2023-02-04T21:19:24.796Z,17.67
2023-02-04T21:21:52.280Z,20.77
2023-02-04T21:24:19.211Z,24.57
2023-02-04T21:26:46.197Z,26.47
2023-02-04T21:29:13.363Z,26.97
2023-02-04T21:31:40.785Z,23.13
2023-02-04T21:34:08.012Z,23.23
2023-02-04T21:36:34.964Z,21.13
2023-02-04T21:39:01.779Z,15.47
2023-02-04T21:41:28.599Z,12.27
2023-02-04T21:43:55.406Z,12.20
2023-02-04T21:46:22.421Z,11.93
2023-02-04T21:48:49.242Z,10.90
2023-02-04T21:51:16.125Z,15.97
2023-02-04T21:53:44.238Z,19.70
2023-02-04T21:56:11.368Z,21.93
2023-02-04T21:58:38.807Z,20.53
2023-02-04T22:01:05.842Z,25.37
2023-02-04T22:03:32.837Z,23.23
2023-02-04T22:06:00.475Z,23.83
2023-02-04T22:08:27.313Z,23.80
2023-02-04T22:10:54.279Z,23.10
2023-02-04T22:13:21.085Z,21.50
2023-02-04T22:15:48.178Z,22.60
2023-02-04T22:18:15.318Z,25.13
2023-02-04T22:20:42.120Z,23.73
2023-02-04T22:23:09.042Z,20.80
2023-02-04T22:25:36.152Z,17.03
2023-02-04T22:28:03.359Z,19.97
2023-02-04T22:30:30.227Z,16.93
2023-02-04T22:32:59.992Z,17.50
2023-02-04T22:35:29.680Z,20.57
2023-02-04T22:37:59.405Z,21.70
2023-02-04T22:40:27.898Z,20.70
2023-02-04T22:42:54.723Z,20.67
2023-02-04T22:45:21.495Z,21.47
2023-02-04T22:47:48.340Z,20.77
2023-02-04T22:50:15.582Z,22.20
2023-02-04T22:52:43.858Z,20.77
2023-02-04T22:55:10.852Z,20.00
2023-02-04T22:57:37.657Z,19.13
2023-02-04T23:00:09.053Z,19.70
2023-02-04T23:02:36.236Z,19.97
2023-02-04T23:05:04.069Z,21.87
2023-02-04T23:07:32.007Z,21.03
2023-02-04T23:09:59.253Z,20.63
2023-02-04T23:12:26.030Z,20.97
2023-02-04T23:14:52.833Z,19.60
2023-02-04T23:17:19.797Z,14.60
2023-02-04T23:19:46.607Z,16.60
2023-02-04T23:22:14.613Z,17.87
2023-02-04T23:24:42.546Z,15.43
2023-02-04T23:27:11.316Z,17.03
2023-02-04T23:29:39.649Z,18.87
2023-02-04T23:32:06.812Z,19.60
2023-02-04T23:34:33.729Z,19.97
2023-02-04T23:37:00.950Z,19.83
2023-02-04T23:39:27.936Z,19.33
2023-02-04T23:41:54.872Z,16.83
2023-02-04T23:44:21.746Z,16.83
2023-02-04T23:46:48.577Z,17.10
2023-02-04T23:49:15.740Z,18.27
2023-02-04T23:51:42.742Z,17.47
2023-02-04T23:54:09.548Z,17.53
2023-02-04T23:56:36.412Z,17.80
2023-02-04T23:59:04.202Z,19.50
